WetterOnline ( https://www.wetteronline.de )

Wetter aktuell Aachen

Aktuelles Wetter: Aachen-Orsbach (231m)

6-stündlich | Neueste Meldungen
Ortszeit Temperatur Wetter
Do, 18.04. 20:00 8.3° C bewölkt
Do, 18.04. 14:00 8.1° C bewölkt
Do, 18.04. 8:00 3.6° C bewölkt
Do, 18.04. 2:00 3.2° C bewölkt
Mi, 17.04. 20:00 3.9° C leicht bewölkt
Mi, 17.04. 14:00 4.0° C Regen
Mi, 17.04. 8:00 3.3° C bedeckt
Mi, 17.04. 2:00 4.1° C leicht bewölkt
Ortszeit Temperatur Wetter
Fr, 19.04. 1:30 6.3° C bewölkt
Fr, 19.04. 1:20 6.3° C bewölkt
Fr, 19.04. 1:10 6.2° C bewölkt
Fr, 19.04. 1:00 5.8° C wolkig
Fr, 19.04. 0:50 5.8° C wolkig
Fr, 19.04. 0:40 5.4° C bedeckt
Fr, 19.04. 0:30 5.7° C bedeckt
Fr, 19.04. 0:00 5.3° C bedeckt
Do, 18.04. 23:30 5.5° C bewölkt
Do, 18.04. 23:00 5.9° C bedeckt
Do, 18.04. 22:30 6.0° C bedeckt
Ortszeit Relative Feuchte Sichtweite
Do, 18.04. 20:00 70% 60 km
Do, 18.04. 14:00 63% 60 km
Do, 18.04. 8:00 98% 4.2 km
Do, 18.04. 2:00 98% 4.6 km
Mi, 17.04. 20:00 86% >70 km
Mi, 17.04. 14:00 89% 55 km
Mi, 17.04. 8:00 99% 4.8 km
Mi, 17.04. 2:00 96% 17 km
Ortszeit Relative Feuchte Sichtweite
Fr, 19.04. 1:30 82% 40 km
Fr, 19.04. 1:20 82% -
Fr, 19.04. 1:10 83% -
Fr, 19.04. 1:00 84% 45 km
Fr, 19.04. 0:50 84% -
Fr, 19.04. 0:40 85% -
Fr, 19.04. 0:30 82% 45 km
Fr, 19.04. 0:00 84% 50 km
Do, 18.04. 23:30 82% 50 km
Do, 18.04. 23:00 80% 60 km
Do, 18.04. 22:30 80% 55 km
Ortszeit Niederschlagsmenge Niederschlagsart
Do, 18.04. 20:00 0.0 l/m2 in 12 Std. -
Do, 18.04. 14:00 0.1 l/m2 in 6 Std. -
Do, 18.04. 8:00 3 l/m2 in 12 Std. Regen
Do, 18.04. 2:00 2 l/m2 in 6 Std. Regen
Mi, 17.04. 20:00 4 l/m2 in 12 Std. Regen
Mi, 17.04. 14:00 3 l/m2 in 6 Std. Regen
Mi, 17.04. 8:00 4 l/m2 in 12 Std. -
Mi, 17.04. 2:00 4 l/m2 in 6 Std. Regen
Ortszeit Niederschlagsmenge Niederschlagsart
Fr, 19.04. 1:30 0.0 l/m2 in 30 Min -
Fr, 19.04. 1:20 keine Meldung -
Fr, 19.04. 1:10 keine Meldung -
Fr, 19.04. 1:00 0.0 l/m2 in 1 Std. -
Fr, 19.04. 0:50 keine Meldung -
Fr, 19.04. 0:40 keine Meldung -
Fr, 19.04. 0:30 0.0 l/m2 in 30 Min -
Fr, 19.04. 0:00 0.0 l/m2 in 1 Std. -
Do, 18.04. 23:30 0.0 l/m2 in 30 Min -
Do, 18.04. 23:00 0.0 l/m2 in 1 Std. -
Do, 18.04. 22:30 0.0 l/m2 in 30 Min -
Ortszeit Stärke Spitze Richtung
km/h Bft. km/h Grad Sektor
Do, 18.04. 20:00 17 3 28 270° W
Do, 18.04. 14:00 17 3 28 320° NW
Do, 18.04. 8:00 11 2 18 340° N
Do, 18.04. 2:00 9 2 22 270° W
Mi, 17.04. 20:00 11 2 32 270° W
Mi, 17.04. 14:00 22 4 41 300° NW
Mi, 17.04. 8:00 13 3 20 270° W
Mi, 17.04. 2:00 11 2 40 310° NW
Ortszeit Stärke Spitze Richtung
km/h Bft. km/h Grad Sektor
Fr, 19.04. 1:30 17 3 22 230° SW
Fr, 19.04. 1:20 17 3 - 230° SW
Fr, 19.04. 1:10 17 3 - 230° SW
Fr, 19.04. 1:00 13 3 19 220° SW
Fr, 19.04. 0:50 13 3 - 220° SW
Fr, 19.04. 0:40 9 2 - 230° SW
Fr, 19.04. 0:30 13 3 19 230° SW
Fr, 19.04. 0:00 13 3 19 230° SW
Do, 18.04. 23:30 14 3 18 260° W
Do, 18.04. 23:00 13 3 19 250° W
Do, 18.04. 22:30 13 3 17 250° W
Ortszeit Untergrenze Bedeckung Gattung
total tief tief mittel hoch
Do, 18.04. 20:00 1140 m 7/8 7/8 - - -
Do, 18.04. 14:00 1170 m 7/8 7/8 - - -
Do, 18.04. 8:00 90 m 7/8 7/8 - - -
Do, 18.04. 2:00 60 m 7/8 7/8 - - -
Mi, 17.04. 20:00 600 m 3/8 3/8 - - -
Mi, 17.04. 14:00 330 m 7/8 7/8 - - -
Mi, 17.04. 8:00 90 m 8/8 8/8 - - -
Mi, 17.04. 2:00 480 m 2/8 2/8 - - -
Ortszeit Bedeckungsgrad in Achtel und Wolkenuntergrenze
Fr, 19.04. 1:30 6(990m) 6(1350m) 7(1500m)
Fr, 19.04. 1:20 6(990m) 6(1350m) 7(1500m)
Fr, 19.04. 1:10 7
Fr, 19.04. 1:00 2(1050m) 7(3000m)
Fr, 19.04. 0:50 2(1050m) 7(3000m)
Fr, 19.04. 0:40 8
Fr, 19.04. 0:30 6(3300m) 8(4200m)
Fr, 19.04. 0:00 1(3600m) 7(4800m) 8(5400m)
Do, 18.04. 23:30 4(3600m) 6(4200m) 7(5700m)
Do, 18.04. 23:00 8(3600m)
Do, 18.04. 22:30 8(3900m)
Ortszeit Luftdruck NN (hPa) Tendenz (hPa in 3 Std.)
Do, 18.04. 20:00 1020 - 0,2
Do, 18.04. 14:00 1021 + 0,8
Do, 18.04. 8:00 1018 + 2,3
Do, 18.04. 2:00 1015 + 0,9
Mi, 17.04. 20:00 1012 + 0,2
Mi, 17.04. 14:00 1013 + 0,2
Mi, 17.04. 8:00 1013 + 0,5
Mi, 17.04. 2:00 1012 + 1,5
Ortszeit Luftdruck NN (hPa) Tendenz (hPa in 3 Std.)
Fr, 19.04. 1:30 1018 - 2,1
Fr, 19.04. 1:20 1018 keine Meldung
Fr, 19.04. 1:10 1018 keine Meldung
Fr, 19.04. 1:00 1018 - 1,7
Fr, 19.04. 0:50 1018 keine Meldung
Fr, 19.04. 0:40 1019 keine Meldung
Fr, 19.04. 0:30 1019 - 1,4
Fr, 19.04. 0:00 1019 - 1,1
Do, 18.04. 23:30 1020 - 0,7
Do, 18.04. 23:00 1020 - 0,6
Do, 18.04. 22:30 1020 - 0,3
Ortszeit Schneehöhe (cm)
Do, 18.04. 20:00 0
Do, 18.04. 14:00 0
Do, 18.04. 8:00 0
Do, 18.04. 2:00 0
Mi, 17.04. 20:00 0
Mi, 17.04. 14:00 0
Mi, 17.04. 8:00 0
Mi, 17.04. 2:00 0
Ortszeit Schneehöhe (cm)
Fr, 19.04. 1:30 0
Fr, 19.04. 1:20 0
Fr, 19.04. 1:10 -
Fr, 19.04. 1:00 0
Fr, 19.04. 0:50 0
Fr, 19.04. 0:40 -
Fr, 19.04. 0:30 0
Fr, 19.04. 0:00 0
Do, 18.04. 23:30 0
Do, 18.04. 23:00 0
Do, 18.04. 22:30 0
Link zu dieser Seite / Seite empfehlen

Das Wetter in ...